C83 weather

Byron Airport
Byron, California, United States

Public forecast

Using degrees Fahrenheit for public forecast. Weather courtesy of forecast.io.

Closest aviation weather report (METAR) to Byron Airport

Closest report is Livermore Municipal Airport, 12.3 nm (22.7 km) SW. Retrieved 2019/10/13 18:53 UTC (15 minutes ago):

KLVK 131853Z 00000KT 10SM CLR 22/M02 A2986 RMK AO2 SLP107 T02171017

Closest aviation forecast (TAF) to Byron Airport

Closest forecast is Livermore Municipal Airport, 12.3 nm (22.7 km) SW. Retrieved 2019/10/13 18:22 UTC (46 minutes ago):

TAF KLVK 131720Z 1318/1418 VRB04KT P6SM FEW200 FM132000 30010KT P6SM SKC FM140600 VRB03KT P6SM SKC